sensor_id;sensor_type;location;lat;lon;timestamp;P1;durP1;ratioP1;P2;durP2;ratioP2
12758;SDS011;20944;47.048;15.390;2024-03-08T00:00:32;8.90;;;5.57;;
12758;SDS011;20944;47.048;15.390;2024-03-08T00:03:02;8.03;;;4.73;;
12758;SDS011;20944;47.048;15.390;2024-03-08T00:05:31;6.07;;;3.60;;
12758;SDS011;20944;47.048;15.390;2024-03-08T00:07:59;6.27;;;3.57;;
12758;SDS011;20944;47.048;15.390;2024-03-08T00:10:28;5.77;;;3.70;;
12758;SDS011;20944;47.048;15.390;2024-03-08T00:12:56;6.10;;;3.90;;
12758;SDS011;20944;47.048;15.390;2024-03-08T00:15:25;7.07;;;4.07;;
12758;SDS011;20944;47.048;15.390;2024-03-08T00:17:56;7.77;;;4.03;;
12758;SDS011;20944;47.048;15.390;2024-03-08T00:20:25;7.00;;;4.27;;
12758;SDS011;20944;47.048;15.390;2024-03-08T00:22:54;8.93;;;4.17;;
12758;SDS011;20944;47.048;15.390;2024-03-08T00:25:24;6.70;;;4.90;;
12758;SDS011;20944;47.048;15.390;2024-03-08T00:27:52;10.27;;;5.10;;
12758;SDS011;20944;47.048;15.390;2024-03-08T00:30:22;7.13;;;3.67;;
12758;SDS011;20944;47.048;15.390;2024-03-08T00:32:51;7.23;;;3.77;;
12758;SDS011;20944;47.048;15.390;2024-03-08T00:35:20;8.97;;;4.80;;
12758;SDS011;20944;47.048;15.390;2024-03-08T00:37:50;9.20;;;5.17;;
12758;SDS011;20944;47.048;15.390;2024-03-08T00:40:18;7.53;;;4.57;;
12758;SDS011;20944;47.048;15.390;2024-03-08T00:42:47;9.33;;;4.80;;
12758;SDS011;20944;47.048;15.390;2024-03-08T00:45:15;8.73;;;4.63;;
12758;SDS011;20944;47.048;15.390;2024-03-08T00:47:43;9.60;;;5.40;;
12758;SDS011;20944;47.048;15.390;2024-03-08T00:50:12;11.23;;;5.07;;
12758;SDS011;20944;47.048;15.390;2024-03-08T00:52:40;8.43;;;4.73;;
12758;SDS011;20944;47.048;15.390;2024-03-08T00:55:10;7.30;;;4.60;;
12758;SDS011;20944;47.048;15.390;2024-03-08T00:57:38;9.30;;;5.33;;
12758;SDS011;20944;47.048;15.390;2024-03-08T01:00:07;9.30;;;4.80;;
12758;SDS011;20944;47.048;15.390;2024-03-08T01:02:39;7.63;;;4.80;;
12758;SDS011;20944;47.048;15.390;2024-03-08T01:05:08;8.67;;;4.73;;
12758;SDS011;20944;47.048;15.390;2024-03-08T01:07:36;8.47;;;4.07;;
12758;SDS011;20944;47.048;15.390;2024-03-08T01:10:05;9.47;;;5.03;;
12758;SDS011;20944;47.048;15.390;2024-03-08T01:12:38;10.90;;;5.00;;
12758;SDS011;20944;47.048;15.390;2024-03-08T01:15:07;8.03;;;4.43;;
12758;SDS011;20944;47.048;15.390;2024-03-08T01:17:35;7.07;;;4.67;;
12758;SDS011;20944;47.048;15.390;2024-03-08T01:20:06;10.40;;;5.30;;
12758;SDS011;20944;47.048;15.390;2024-03-08T01:22:37;10.40;;;5.00;;
12758;SDS011;20944;47.048;15.390;2024-03-08T01:25:06;11.00;;;5.50;;
12758;SDS011;20944;47.048;15.390;2024-03-08T01:27:35;9.67;;;5.80;;
12758;SDS011;20944;47.048;15.390;2024-03-08T01:30:05;9.93;;;5.70;;
12758;SDS011;20944;47.048;15.390;2024-03-08T01:32:36;9.57;;;4.57;;
12758;SDS011;20944;47.048;15.390;2024-03-08T01:35:05;11.00;;;5.63;;
12758;SDS011;20944;47.048;15.390;2024-03-08T01:37:36;8.27;;;5.27;;
12758;SDS011;20944;47.048;15.390;2024-03-08T01:40:05;10.97;;;6.30;;
12758;SDS011;20944;47.048;15.390;2024-03-08T01:42:35;13.63;;;6.37;;
12758;SDS011;20944;47.048;15.390;2024-03-08T01:45:06;12.70;;;7.10;;
12758;SDS011;20944;47.048;15.390;2024-03-08T01:47:35;16.30;;;6.53;;
12758;SDS011;20944;47.048;15.390;2024-03-08T01:50:04;11.00;;;7.00;;
12758;SDS011;20944;47.048;15.390;2024-03-08T01:52:33;14.33;;;7.10;;
12758;SDS011;20944;47.048;15.390;2024-03-08T01:55:03;10.87;;;7.13;;
12758;SDS011;20944;47.048;15.390;2024-03-08T01:57:34;12.67;;;6.20;;
12758;SDS011;20944;47.048;15.390;2024-03-08T02:00:06;11.17;;;6.10;;
12758;SDS011;20944;47.048;15.390;2024-03-08T02:02:37;10.80;;;5.97;;
12758;SDS011;20944;47.048;15.390;2024-03-08T02:05:10;11.13;;;6.57;;
12758;SDS011;20944;47.048;15.390;2024-03-08T02:07:38;14.77;;;6.60;;
12758;SDS011;20944;47.048;15.390;2024-03-08T02:10:10;11.93;;;6.33;;
12758;SDS011;20944;47.048;15.390;2024-03-08T02:12:39;9.40;;;5.43;;
12758;SDS011;20944;47.048;15.390;2024-03-08T02:15:09;11.00;;;5.67;;
12758;SDS011;20944;47.048;15.390;2024-03-08T02:17:37;10.87;;;5.87;;
12758;SDS011;20944;47.048;15.390;2024-03-08T02:20:06;17.37;;;6.83;;
12758;SDS011;20944;47.048;15.390;2024-03-08T02:22:37;12.63;;;6.23;;
12758;SDS011;20944;47.048;15.390;2024-03-08T02:25:06;12.97;;;6.03;;
12758;SDS011;20944;47.048;15.390;2024-03-08T02:27:36;12.23;;;7.10;;
12758;SDS011;20944;47.048;15.390;2024-03-08T02:30:05;12.80;;;6.60;;
12758;SDS011;20944;47.048;15.390;2024-03-08T02:32:34;12.73;;;7.17;;
12758;SDS011;20944;47.048;15.390;2024-03-08T02:35:03;15.50;;;7.33;;
12758;SDS011;20944;47.048;15.390;2024-03-08T02:37:32;17.67;;;7.50;;
12758;SDS011;20944;47.048;15.390;2024-03-08T02:40:02;13.40;;;6.43;;
12758;SDS011;20944;47.048;15.390;2024-03-08T02:42:32;12.20;;;6.23;;
12758;SDS011;20944;47.048;15.390;2024-03-08T02:44:59;13.03;;;6.03;;
12758;SDS011;20944;47.048;15.390;2024-03-08T02:47:27;14.10;;;6.80;;
12758;SDS011;20944;47.048;15.390;2024-03-08T02:49:58;11.43;;;6.70;;
12758;SDS011;20944;47.048;15.390;2024-03-08T02:52:27;12.03;;;6.07;;
12758;SDS011;20944;47.048;15.390;2024-03-08T02:54:56;12.80;;;6.47;;
12758;SDS011;20944;47.048;15.390;2024-03-08T02:57:25;10.87;;;5.60;;
12758;SDS011;20944;47.048;15.390;2024-03-08T02:59:54;12.87;;;6.70;;
12758;SDS011;20944;47.048;15.390;2024-03-08T03:02:22;13.33;;;6.93;;
12758;SDS011;20944;47.048;15.390;2024-03-08T03:04:50;12.47;;;6.40;;
12758;SDS011;20944;47.048;15.390;2024-03-08T03:07:18;11.37;;;6.17;;
12758;SDS011;20944;47.048;15.390;2024-03-08T03:09:47;11.97;;;6.47;;
12758;SDS011;20944;47.048;15.390;2024-03-08T03:12:15;10.40;;;6.20;;
12758;SDS011;20944;47.048;15.390;2024-03-08T03:14:46;11.37;;;6.17;;
12758;SDS011;20944;47.048;15.390;2024-03-08T03:17:14;11.63;;;6.53;;
12758;SDS011;20944;47.048;15.390;2024-03-08T03:19:42;10.67;;;5.57;;
12758;SDS011;20944;47.048;15.390;2024-03-08T03:22:11;11.50;;;6.80;;
12758;SDS011;20944;47.048;15.390;2024-03-08T03:24:39;11.90;;;6.00;;
12758;SDS011;20944;47.048;15.390;2024-03-08T03:27:08;9.07;;;6.07;;
12758;SDS011;20944;47.048;15.390;2024-03-08T03:29:38;11.83;;;5.60;;
12758;SDS011;20944;47.048;15.390;2024-03-08T03:32:10;11.13;;;7.07;;
12758;SDS011;20944;47.048;15.390;2024-03-08T03:34:38;10.53;;;5.97;;
12758;SDS011;20944;47.048;15.390;2024-03-08T03:37:07;11.97;;;6.07;;
12758;SDS011;20944;47.048;15.390;2024-03-08T03:39:39;10.77;;;6.67;;
12758;SDS011;20944;47.048;15.390;2024-03-08T03:42:15;11.57;;;5.77;;
12758;SDS011;20944;47.048;15.390;2024-03-08T03:44:44;11.87;;;6.03;;
12758;SDS011;20944;47.048;15.390;2024-03-08T03:47:15;10.73;;;5.33;;
12758;SDS011;20944;47.048;15.390;2024-03-08T03:49:43;12.70;;;5.77;;
12758;SDS011;20944;47.048;15.390;2024-03-08T03:52:12;9.17;;;4.63;;
12758;SDS011;20944;47.048;15.390;2024-03-08T03:54:40;8.83;;;4.87;;
12758;SDS011;20944;47.048;15.390;2024-03-08T03:57:08;8.50;;;4.80;;
12758;SDS011;20944;47.048;15.390;2024-03-08T03:59:37;9.40;;;4.53;;
12758;SDS011;20944;47.048;15.390;2024-03-08T04:02:06;9.20;;;5.30;;
12758;SDS011;20944;47.048;15.390;2024-03-08T04:04:35;9.70;;;4.53;;
12758;SDS011;20944;47.048;15.390;2024-03-08T04:07:03;8.17;;;4.07;;
12758;SDS011;20944;47.048;15.390;2024-03-08T04:09:32;8.97;;;5.17;;
12758;SDS011;20944;47.048;15.390;2024-03-08T04:12:02;6.87;;;4.17;;
12758;SDS011;20944;47.048;15.390;2024-03-08T04:14:31;8.77;;;4.60;;
12758;SDS011;20944;47.048;15.390;2024-03-08T04:16:59;9.30;;;4.77;;
12758;SDS011;20944;47.048;15.390;2024-03-08T04:19:28;8.50;;;4.37;;
12758;SDS011;20944;47.048;15.390;2024-03-08T04:21:58;10.17;;;5.87;;
12758;SDS011;20944;47.048;15.390;2024-03-08T04:24:27;11.70;;;5.63;;
12758;SDS011;20944;47.048;15.390;2024-03-08T04:26:57;11.83;;;5.63;;
12758;SDS011;20944;47.048;15.390;2024-03-08T04:29:25;8.60;;;5.27;;
12758;SDS011;20944;47.048;15.390;2024-03-08T04:31:54;9.80;;;5.67;;
12758;SDS011;20944;47.048;15.390;2024-03-08T04:34:22;7.73;;;4.23;;
12758;SDS011;20944;47.048;15.390;2024-03-08T04:36:50;11.13;;;5.37;;
12758;SDS011;20944;47.048;15.390;2024-03-08T04:39:20;8.70;;;5.37;;
12758;SDS011;20944;47.048;15.390;2024-03-08T04:41:49;8.43;;;4.80;;
12758;SDS011;20944;47.048;15.390;2024-03-08T04:44:18;9.27;;;5.13;;
12758;SDS011;20944;47.048;15.390;2024-03-08T04:46:46;8.77;;;5.53;;
12758;SDS011;20944;47.048;15.390;2024-03-08T04:49:14;9.20;;;5.27;;
12758;SDS011;20944;47.048;15.390;2024-03-08T04:51:43;10.90;;;5.47;;
12758;SDS011;20944;47.048;15.390;2024-03-08T04:54:12;11.83;;;4.87;;
12758;SDS011;20944;47.048;15.390;2024-03-08T04:56:42;8.60;;;4.63;;
12758;SDS011;20944;47.048;15.390;2024-03-08T04:59:10;8.37;;;5.00;;
12758;SDS011;20944;47.048;15.390;2024-03-08T05:01:40;8.73;;;5.07;;
12758;SDS011;20944;47.048;15.390;2024-03-08T05:04:08;9.27;;;4.40;;
12758;SDS011;20944;47.048;15.390;2024-03-08T05:06:36;11.13;;;4.90;;
12758;SDS011;20944;47.048;15.390;2024-03-08T05:09:05;8.67;;;4.53;;
12758;SDS011;20944;47.048;15.390;2024-03-08T05:11:42;7.87;;;4.87;;
12758;SDS011;20944;47.048;15.390;2024-03-08T05:14:11;8.03;;;4.63;;
12758;SDS011;20944;47.048;15.390;2024-03-08T05:16:43;8.93;;;4.77;;
12758;SDS011;20944;47.048;15.390;2024-03-08T05:19:15;10.57;;;4.67;;
12758;SDS011;20944;47.048;15.390;2024-03-08T05:21:44;10.27;;;5.70;;
12758;SDS011;20944;47.048;15.390;2024-03-08T05:24:13;12.03;;;5.80;;
12758;SDS011;20944;47.048;15.390;2024-03-08T05:26:45;11.17;;;5.10;;
12758;SDS011;20944;47.048;15.390;2024-03-08T05:29:14;8.13;;;4.53;;
12758;SDS011;20944;47.048;15.390;2024-03-08T05:31:45;10.60;;;5.30;;
12758;SDS011;20944;47.048;15.390;2024-03-08T05:34:15;13.13;;;5.70;;
12758;SDS011;20944;47.048;15.390;2024-03-08T05:36:43;10.37;;;5.37;;
12758;SDS011;20944;47.048;15.390;2024-03-08T05:39:13;10.23;;;5.07;;
12758;SDS011;20944;47.048;15.390;2024-03-08T05:41:41;7.90;;;4.37;;
12758;SDS011;20944;47.048;15.390;2024-03-08T05:44:12;11.33;;;5.30;;
12758;SDS011;20944;47.048;15.390;2024-03-08T05:46:40;13.67;;;6.27;;
12758;SDS011;20944;47.048;15.390;2024-03-08T05:49:09;17.90;;;6.50;;
12758;SDS011;20944;47.048;15.390;2024-03-08T05:51:39;11.00;;;6.23;;
12758;SDS011;20944;47.048;15.390;2024-03-08T05:54:09;12.93;;;6.77;;
12758;SDS011;20944;47.048;15.390;2024-03-08T05:56:42;12.00;;;6.07;;
12758;SDS011;20944;47.048;15.390;2024-03-08T05:59:13;9.87;;;5.60;;
12758;SDS011;20944;47.048;15.390;2024-03-08T06:01:41;11.53;;;6.27;;
12758;SDS011;20944;47.048;15.390;2024-03-08T06:04:10;12.53;;;6.20;;
12758;SDS011;20944;47.048;15.390;2024-03-08T06:06:39;10.37;;;6.07;;
12758;SDS011;20944;47.048;15.390;2024-03-08T06:09:07;11.33;;;6.80;;
12758;SDS011;20944;47.048;15.390;2024-03-08T06:11:39;16.43;;;7.20;;
12758;SDS011;20944;47.048;15.390;2024-03-08T06:14:09;12.83;;;7.33;;
12758;SDS011;20944;47.048;15.390;2024-03-08T06:16:39;13.20;;;6.97;;
12758;SDS011;20944;47.048;15.390;2024-03-08T06:19:07;15.37;;;7.13;;
12758;SDS011;20944;47.048;15.390;2024-03-08T06:21:35;11.93;;;6.27;;
12758;SDS011;20944;47.048;15.390;2024-03-08T06:24:03;12.40;;;7.30;;
12758;SDS011;20944;47.048;15.390;2024-03-08T06:26:32;19.73;;;7.30;;
12758;SDS011;20944;47.048;15.390;2024-03-08T06:29:04;14.30;;;7.50;;
12758;SDS011;20944;47.048;15.390;2024-03-08T06:31:33;15.23;;;7.67;;
12758;SDS011;20944;47.048;15.390;2024-03-08T06:34:07;13.83;;;7.50;;
12758;SDS011;20944;47.048;15.390;2024-03-08T06:36:36;13.93;;;7.20;;
12758;SDS011;20944;47.048;15.390;2024-03-08T06:39:05;14.53;;;7.40;;
12758;SDS011;20944;47.048;15.390;2024-03-08T06:41:36;12.53;;;7.73;;
12758;SDS011;20944;47.048;15.390;2024-03-08T06:44:05;11.80;;;6.27;;
12758;SDS011;20944;47.048;15.390;2024-03-08T06:46:34;14.73;;;7.27;;
12758;SDS011;20944;47.048;15.390;2024-03-08T06:49:03;11.33;;;6.57;;
12758;SDS011;20944;47.048;15.390;2024-03-08T06:51:32;13.87;;;7.77;;
12758;SDS011;20944;47.048;15.390;2024-03-08T06:54:01;12.67;;;7.27;;
12758;SDS011;20944;47.048;15.390;2024-03-08T06:56:35;10.03;;;6.20;;
12758;SDS011;20944;47.048;15.390;2024-03-08T06:59:03;12.30;;;7.17;;
12758;SDS011;20944;47.048;15.390;2024-03-08T07:01:33;16.47;;;7.50;;
12758;SDS011;20944;47.048;15.390;2024-03-08T07:04:03;14.77;;;8.17;;
12758;SDS011;20944;47.048;15.390;2024-03-08T07:06:34;12.20;;;7.50;;
12758;SDS011;20944;47.048;15.390;2024-03-08T07:09:03;12.90;;;7.90;;
12758;SDS011;20944;47.048;15.390;2024-03-08T07:11:31;14.63;;;7.60;;
12758;SDS011;20944;47.048;15.390;2024-03-08T07:14:01;20.33;;;8.23;;
12758;SDS011;20944;47.048;15.390;2024-03-08T07:16:32;13.97;;;7.57;;
12758;SDS011;20944;47.048;15.390;2024-03-08T07:19:00;17.07;;;8.37;;
12758;SDS011;20944;47.048;15.390;2024-03-08T07:21:30;14.67;;;7.63;;
12758;SDS011;20944;47.048;15.390;2024-03-08T07:23:59;14.00;;;8.47;;
12758;SDS011;20944;47.048;15.390;2024-03-08T07:26:45;14.53;;;8.57;;
12758;SDS011;20944;47.048;15.390;2024-03-08T07:29:16;15.60;;;8.00;;
12758;SDS011;20944;47.048;15.390;2024-03-08T07:31:44;13.97;;;7.87;;
12758;SDS011;20944;47.048;15.390;2024-03-08T07:34:21;13.03;;;7.70;;
12758;SDS011;20944;47.048;15.390;2024-03-08T07:36:50;13.77;;;7.97;;
12758;SDS011;20944;47.048;15.390;2024-03-08T07:39:19;13.67;;;7.67;;
12758;SDS011;20944;47.048;15.390;2024-03-08T07:41:50;15.57;;;9.60;;
12758;SDS011;20944;47.048;15.390;2024-03-08T07:44:19;18.27;;;8.63;;
12758;SDS011;20944;47.048;15.390;2024-03-08T07:46:47;18.37;;;8.83;;
12758;SDS011;20944;47.048;15.390;2024-03-08T07:49:15;23.17;;;8.40;;
12758;SDS011;20944;47.048;15.390;2024-03-08T07:51:44;14.23;;;8.17;;
12758;SDS011;20944;47.048;15.390;2024-03-08T07:54:13;16.70;;;8.23;;
12758;SDS011;20944;47.048;15.390;2024-03-08T07:56:42;16.73;;;8.63;;
12758;SDS011;20944;47.048;15.390;2024-03-08T07:59:11;16.23;;;7.20;;
12758;SDS011;20944;47.048;15.390;2024-03-08T08:01:39;18.53;;;7.83;;
12758;SDS011;20944;47.048;15.390;2024-03-08T08:04:08;15.30;;;7.77;;
12758;SDS011;20944;47.048;15.390;2024-03-08T08:06:39;11.40;;;7.03;;
12758;SDS011;20944;47.048;15.390;2024-03-08T08:09:07;15.83;;;8.60;;
12758;SDS011;20944;47.048;15.390;2024-03-08T08:11:40;17.30;;;7.73;;
12758;SDS011;20944;47.048;15.390;2024-03-08T08:14:10;17.13;;;7.63;;
12758;SDS011;20944;47.048;15.390;2024-03-08T08:16:39;14.37;;;8.17;;
12758;SDS011;20944;47.048;15.390;2024-03-08T08:19:09;13.90;;;6.97;;
12758;SDS011;20944;47.048;15.390;2024-03-08T08:21:40;13.70;;;7.57;;
12758;SDS011;20944;47.048;15.390;2024-03-08T08:24:09;14.77;;;7.63;;
12758;SDS011;20944;47.048;15.390;2024-03-08T08:26:37;11.37;;;6.80;;
12758;SDS011;20944;47.048;15.390;2024-03-08T08:29:07;13.10;;;6.93;;
12758;SDS011;20944;47.048;15.390;2024-03-08T08:31:36;14.03;;;7.33;;
12758;SDS011;20944;47.048;15.390;2024-03-08T08:34:04;14.30;;;7.30;;
12758;SDS011;20944;47.048;15.390;2024-03-08T08:36:33;12.10;;;6.70;;
12758;SDS011;20944;47.048;15.390;2024-03-08T08:39:01;12.60;;;6.47;;
12758;SDS011;20944;47.048;15.390;2024-03-08T08:41:30;13.90;;;7.30;;
12758;SDS011;20944;47.048;15.390;2024-03-08T08:43:59;12.27;;;6.37;;
12758;SDS011;20944;47.048;15.390;2024-03-08T08:46:42;11.30;;;6.47;;
12758;SDS011;20944;47.048;15.390;2024-03-08T08:49:11;11.43;;;7.17;;
12758;SDS011;20944;47.048;15.390;2024-03-08T08:51:41;11.10;;;6.73;;
12758;SDS011;20944;47.048;15.390;2024-03-08T08:54:09;13.00;;;6.50;;
12758;SDS011;20944;47.048;15.390;2024-03-08T08:56:41;13.03;;;7.40;;
12758;SDS011;20944;47.048;15.390;2024-03-08T08:59:10;13.27;;;6.83;;
12758;SDS011;20944;47.048;15.390;2024-03-08T09:01:40;9.80;;;6.23;;
12758;SDS011;20944;47.048;15.390;2024-03-08T09:04:10;10.20;;;6.13;;
12758;SDS011;20944;47.048;15.390;2024-03-08T09:06:39;10.53;;;5.97;;
12758;SDS011;20944;47.048;15.390;2024-03-08T09:09:09;13.97;;;5.93;;
12758;SDS011;20944;47.048;15.390;2024-03-08T09:11:37;11.60;;;6.47;;
12758;SDS011;20944;47.048;15.390;2024-03-08T09:14:08;11.87;;;6.10;;
12758;SDS011;20944;47.048;15.390;2024-03-08T09:16:38;15.23;;;7.00;;
12758;SDS011;20944;47.048;15.390;2024-03-08T09:19:07;12.50;;;6.07;;
12758;SDS011;20944;47.048;15.390;2024-03-08T09:21:39;13.00;;;6.37;;
12758;SDS011;20944;47.048;15.390;2024-03-08T09:24:07;10.70;;;5.70;;
12758;SDS011;20944;47.048;15.390;2024-03-08T09:26:35;8.93;;;6.03;;
12758;SDS011;20944;47.048;15.390;2024-03-08T09:29:04;10.33;;;5.70;;
12758;SDS011;20944;47.048;15.390;2024-03-08T09:31:33;8.70;;;5.33;;
12758;SDS011;20944;47.048;15.390;2024-03-08T09:34:02;9.87;;;5.43;;
12758;SDS011;20944;47.048;15.390;2024-03-08T09:36:30;11.13;;;5.70;;
12758;SDS011;20944;47.048;15.390;2024-03-08T09:39:01;8.33;;;5.57;;
12758;SDS011;20944;47.048;15.390;2024-03-08T09:41:29;7.63;;;4.60;;
12758;SDS011;20944;47.048;15.390;2024-03-08T09:43:58;7.57;;;4.77;;
12758;SDS011;20944;47.048;15.390;2024-03-08T09:46:27;9.33;;;5.17;;
12758;SDS011;20944;47.048;15.390;2024-03-08T09:48:55;9.77;;;5.60;;
12758;SDS011;20944;47.048;15.390;2024-03-08T09:51:27;9.30;;;5.13;;
12758;SDS011;20944;47.048;15.390;2024-03-08T09:53:57;7.73;;;4.97;;
12758;SDS011;20944;47.048;15.390;2024-03-08T09:56:31;9.07;;;5.23;;
12758;SDS011;20944;47.048;15.390;2024-03-08T09:59:00;8.73;;;5.47;;
12758;SDS011;20944;47.048;15.390;2024-03-08T10:01:59;8.03;;;5.40;;
12758;SDS011;20944;47.048;15.390;2024-03-08T10:04:29;10.13;;;5.33;;
12758;SDS011;20944;47.048;15.390;2024-03-08T10:06:58;10.40;;;5.47;;
12758;SDS011;20944;47.048;15.390;2024-03-08T10:09:28;8.57;;;5.00;;
12758;SDS011;20944;47.048;15.390;2024-03-08T10:11:58;10.43;;;4.73;;
12758;SDS011;20944;47.048;15.390;2024-03-08T10:14:27;6.17;;;4.23;;
12758;SDS011;20944;47.048;15.390;2024-03-08T10:16:55;8.73;;;5.13;;
12758;SDS011;20944;47.048;15.390;2024-03-08T10:19:26;8.67;;;4.67;;
12758;SDS011;20944;47.048;15.390;2024-03-08T10:21:56;6.53;;;4.13;;
12758;SDS011;20944;47.048;15.390;2024-03-08T10:24:26;10.83;;;5.10;;
12758;SDS011;20944;47.048;15.390;2024-03-08T10:26:55;8.00;;;4.47;;
12758;SDS011;20944;47.048;15.390;2024-03-08T10:29:32;8.50;;;4.37;;
12758;SDS011;20944;47.048;15.390;2024-03-08T10:32:01;6.63;;;4.37;;
12758;SDS011;20944;47.048;15.390;2024-03-08T10:34:32;6.40;;;4.17;;
12758;SDS011;20944;47.048;15.390;2024-03-08T10:37:01;7.13;;;4.27;;
12758;SDS011;20944;47.048;15.390;2024-03-08T10:39:33;6.47;;;3.73;;
12758;SDS011;20944;47.048;15.390;2024-03-08T10:42:05;7.00;;;3.77;;
12758;SDS011;20944;47.048;15.390;2024-03-08T10:44:49;11.00;;;4.67;;
12758;SDS011;20944;47.048;15.390;2024-03-08T10:47:23;7.37;;;3.80;;
12758;SDS011;20944;47.048;15.390;2024-03-08T10:49:59;7.10;;;4.60;;
12758;SDS011;20944;47.048;15.390;2024-03-08T10:52:37;7.30;;;4.50;;
12758;SDS011;20944;47.048;15.390;2024-03-08T10:55:05;6.33;;;4.17;;
12758;SDS011;20944;47.048;15.390;2024-03-08T10:57:40;7.87;;;4.20;;
12758;SDS011;20944;47.048;15.390;2024-03-08T11:00:11;5.97;;;3.83;;
12758;SDS011;20944;47.048;15.390;2024-03-08T11:02:43;6.70;;;4.07;;
12758;SDS011;20944;47.048;15.390;2024-03-08T11:05:13;7.73;;;4.03;;
12758;SDS011;20944;47.048;15.390;2024-03-08T11:08:02;7.20;;;4.50;;
12758;SDS011;20944;47.048;15.390;2024-03-08T11:10:31;6.13;;;4.07;;
12758;SDS011;20944;47.048;15.390;2024-03-08T11:13:01;5.90;;;3.63;;
12758;SDS011;20944;47.048;15.390;2024-03-08T11:15:30;6.60;;;4.27;;
12758;SDS011;20944;47.048;15.390;2024-03-08T11:17:58;6.07;;;3.67;;
12758;SDS011;20944;47.048;15.390;2024-03-08T11:20:28;5.50;;;3.60;;
12758;SDS011;20944;47.048;15.390;2024-03-08T11:23:00;5.60;;;3.57;;
12758;SDS011;20944;47.048;15.390;2024-03-08T11:25:34;6.73;;;3.47;;
12758;SDS011;20944;47.048;15.390;2024-03-08T11:28:08;5.17;;;2.90;;
12758;SDS011;20944;47.048;15.390;2024-03-08T11:30:47;5.33;;;3.40;;
12758;SDS011;20944;47.048;15.390;2024-03-08T11:33:50;5.43;;;3.10;;
12758;SDS011;20944;47.048;15.390;2024-03-08T11:36:21;6.23;;;3.83;;
12758;SDS011;20944;47.048;15.390;2024-03-08T11:38:51;6.00;;;3.43;;
12758;SDS011;20944;47.048;15.390;2024-03-08T11:41:22;5.53;;;3.53;;
12758;SDS011;20944;47.048;15.390;2024-03-08T11:44:02;5.37;;;3.27;;
12758;SDS011;20944;47.048;15.390;2024-03-08T11:46:37;4.20;;;2.67;;
12758;SDS011;20944;47.048;15.390;2024-03-08T11:49:09;5.17;;;2.97;;
12758;SDS011;20944;47.048;15.390;2024-03-08T11:51:38;4.73;;;2.73;;
12758;SDS011;20944;47.048;15.390;2024-03-08T11:54:10;8.50;;;3.47;;
12758;SDS011;20944;47.048;15.390;2024-03-08T11:56:39;5.63;;;3.30;;
12758;SDS011;20944;47.048;15.390;2024-03-08T11:59:12;4.80;;;3.23;;
12758;SDS011;20944;47.048;15.390;2024-03-08T12:01:41;4.67;;;3.00;;
12758;SDS011;20944;47.048;15.390;2024-03-08T12:04:11;5.43;;;3.23;;
12758;SDS011;20944;47.048;15.390;2024-03-08T12:06:40;4.67;;;3.50;;
12758;SDS011;20944;47.048;15.390;2024-03-08T12:09:09;3.77;;;2.57;;
12758;SDS011;20944;47.048;15.390;2024-03-08T12:11:38;5.07;;;3.00;;
12758;SDS011;20944;47.048;15.390;2024-03-08T12:14:07;5.37;;;3.23;;
12758;SDS011;20944;47.048;15.390;2024-03-08T12:16:37;5.67;;;3.43;;
12758;SDS011;20944;47.048;15.390;2024-03-08T12:19:06;4.90;;;2.93;;
12758;SDS011;20944;47.048;15.390;2024-03-08T12:21:35;5.90;;;3.13;;
12758;SDS011;20944;47.048;15.390;2024-03-08T12:24:04;6.73;;;3.73;;
12758;SDS011;20944;47.048;15.390;2024-03-08T12:26:35;6.20;;;3.50;;
12758;SDS011;20944;47.048;15.390;2024-03-08T12:29:14;7.23;;;3.67;;
12758;SDS011;20944;47.048;15.390;2024-03-08T12:31:46;4.07;;;3.07;;
12758;SDS011;20944;47.048;15.390;2024-03-08T12:34:14;7.63;;;4.07;;
12758;SDS011;20944;47.048;15.390;2024-03-08T12:36:46;5.70;;;3.70;;
12758;SDS011;20944;47.048;15.390;2024-03-08T12:39:18;6.90;;;3.47;;
12758;SDS011;20944;47.048;15.390;2024-03-08T12:41:49;6.97;;;3.73;;
12758;SDS011;20944;47.048;15.390;2024-03-08T12:44:19;4.93;;;3.30;;
12758;SDS011;20944;47.048;15.390;2024-03-08T12:46:49;6.07;;;3.73;;
12758;SDS011;20944;47.048;15.390;2024-03-08T12:49:20;6.60;;;3.50;;
12758;SDS011;20944;47.048;15.390;2024-03-08T12:51:49;6.67;;;3.57;;
12758;SDS011;20944;47.048;15.390;2024-03-08T12:54:19;7.57;;;4.23;;
12758;SDS011;20944;47.048;15.390;2024-03-08T12:56:50;7.17;;;4.00;;
12758;SDS011;20944;47.048;15.390;2024-03-08T12:59:21;7.27;;;4.33;;
12758;SDS011;20944;47.048;15.390;2024-03-08T13:01:52;7.33;;;3.50;;
12758;SDS011;20944;47.048;15.390;2024-03-08T13:04:20;5.63;;;3.00;;
12758;SDS011;20944;47.048;15.390;2024-03-08T13:06:49;5.10;;;3.23;;
12758;SDS011;20944;47.048;15.390;2024-03-08T13:09:20;4.60;;;3.13;;
12758;SDS011;20944;47.048;15.390;2024-03-08T13:11:50;7.37;;;3.67;;
12758;SDS011;20944;47.048;15.390;2024-03-08T13:14:20;5.23;;;2.80;;
12758;SDS011;20944;47.048;15.390;2024-03-08T13:16:49;5.77;;;3.50;;
12758;SDS011;20944;47.048;15.390;2024-03-08T13:19:20;6.67;;;3.80;;
12758;SDS011;20944;47.048;15.390;2024-03-08T13:21:48;5.57;;;3.33;;
12758;SDS011;20944;47.048;15.390;2024-03-08T13:24:17;7.37;;;3.40;;
12758;SDS011;20944;47.048;15.390;2024-03-08T13:26:46;5.30;;;3.67;;
12758;SDS011;20944;47.048;15.390;2024-03-08T13:29:16;8.27;;;4.03;;
12758;SDS011;20944;47.048;15.390;2024-03-08T13:31:47;6.37;;;4.60;;
12758;SDS011;20944;47.048;15.390;2024-03-08T13:34:20;5.67;;;3.73;;
12758;SDS011;20944;47.048;15.390;2024-03-08T13:36:54;7.60;;;4.63;;
12758;SDS011;20944;47.048;15.390;2024-03-08T13:39:27;10.33;;;4.57;;
12758;SDS011;20944;47.048;15.390;2024-03-08T13:41:59;7.80;;;4.37;;
12758;SDS011;20944;47.048;15.390;2024-03-08T13:44:27;7.60;;;4.43;;
12758;SDS011;20944;47.048;15.390;2024-03-08T13:46:56;9.03;;;4.57;;
12758;SDS011;20944;47.048;15.390;2024-03-08T13:49:26;7.63;;;4.73;;
12758;SDS011;20944;47.048;15.390;2024-03-08T13:51:55;8.77;;;5.00;;
12758;SDS011;20944;47.048;15.390;2024-03-08T13:54:25;7.17;;;4.60;;
12758;SDS011;20944;47.048;15.390;2024-03-08T13:56:57;6.63;;;4.07;;
12758;SDS011;20944;47.048;15.390;2024-03-08T13:59:25;6.07;;;4.33;;
12758;SDS011;20944;47.048;15.390;2024-03-08T14:01:56;8.87;;;4.67;;
12758;SDS011;20944;47.048;15.390;2024-03-08T14:04:27;9.20;;;4.33;;
12758;SDS011;20944;47.048;15.390;2024-03-08T14:06:55;8.97;;;4.50;;
12758;SDS011;20944;47.048;15.390;2024-03-08T14:09:29;5.70;;;3.90;;
12758;SDS011;20944;47.048;15.390;2024-03-08T14:11:58;7.63;;;4.47;;
12758;SDS011;20944;47.048;15.390;2024-03-08T14:14:27;7.87;;;4.47;;
12758;SDS011;20944;47.048;15.390;2024-03-08T14:16:55;5.67;;;4.13;;
12758;SDS011;20944;47.048;15.390;2024-03-08T14:19:26;7.23;;;4.23;;
12758;SDS011;20944;47.048;15.390;2024-03-08T14:21:55;8.13;;;3.77;;
12758;SDS011;20944;47.048;15.390;2024-03-08T14:24:23;7.57;;;5.00;;
12758;SDS011;20944;47.048;15.390;2024-03-08T14:26:51;8.87;;;4.70;;
12758;SDS011;20944;47.048;15.390;2024-03-08T14:29:19;6.90;;;4.40;;
12758;SDS011;20944;47.048;15.390;2024-03-08T14:31:48;8.87;;;4.23;;
12758;SDS011;20944;47.048;15.390;2024-03-08T14:34:17;10.37;;;4.60;;
12758;SDS011;20944;47.048;15.390;2024-03-08T14:36:48;6.47;;;4.47;;
12758;SDS011;20944;47.048;15.390;2024-03-08T14:39:16;8.23;;;4.63;;
12758;SDS011;20944;47.048;15.390;2024-03-08T14:41:48;6.23;;;3.87;;
12758;SDS011;20944;47.048;15.390;2024-03-08T14:44:20;9.03;;;4.50;;